Time;durP1;ratioP1;P1;durP2;ratioP2;P2;SDS_P1;SDS_P2;PMS_P1;PMS_P2;Temp;Humidity;BMP_temperature;BMP_pressure;BME280_temperature;BME280_humidity;BME280_pressure;Samples;Min_cycle;Max_cycle;Signal;HPM_P1;HPM_P2
2023/10/27 00:00:21;;;;;;;8.13;2.67;;;;;;;15.44;100.00;64583.88;5091593;28;20208;-59
2023/10/27 00:02:46;;;;;;;8.00;3.13;;;;;;;15.38;100.00;64577.28;5091900;28;20216;-54
2023/10/27 00:05:12;;;;;;;3.05;1.77;;;;;;;15.64;100.00;64608.44;5091498;28;20693;-54
2023/10/27 00:07:38;;;;;;;5.45;2.00;;;;;;;15.51;100.00;64592.16;5091848;28;20199;-55
2023/10/27 00:10:04;;;;;;;4.68;1.92;;;;;;;15.37;100.00;64576.72;5091450;28;20271;-55
2023/10/27 00:12:30;;;;;;;7.43;2.22;;;;;;;15.30;100.00;64568.47;5073146;28;20285;-56
2023/10/27 00:14:56;;;;;;;9.02;2.10;;;;;;;15.32;100.00;64571.22;5091571;28;20204;-55
2023/10/27 00:17:21;;;;;;;4.13;2.03;;;;;;;15.32;100.00;64570.66;5091471;28;20758;-55
2023/10/27 00:19:47;;;;;;;7.20;2.28;;;;;;;15.36;100.00;64572.53;5073054;28;20211;-56
2023/10/27 00:22:12;;;;;;;4.97;2.00;;;;;;;15.45;100.00;64588.09;5091705;28;20212;-56
2023/10/27 00:24:37;;;;;;;9.38;2.47;;;;;;;15.14;100.00;64554.53;5091309;28;20192;-56
2023/10/27 00:27:04;;;;;;;7.35;1.75;;;;;;;15.34;100.00;64572.88;5091433;28;20207;-54
2023/10/27 00:29:29;;;;;;;4.95;2.10;;;;;;;15.13;100.00;64550.88;5091284;28;20204;-55
2023/10/27 00:31:54;;;;;;;7.28;2.63;;;;;;;14.96;100.00;64532.19;5091372;28;20691;-55
2023/10/27 00:34:20;;;;;;;6.35;2.30;;;;;;;14.92;100.00;64527.81;5091322;28;20245;-55
2023/10/27 00:36:47;;;;;;;4.22;1.67;;;;;;;14.92;100.00;64524.72;5091031;28;20235;-54
2023/10/27 00:39:13;;;;;;;5.70;1.70;;;;;;;15.30;100.00;64568.47;5090991;28;20220;-54
2023/10/27 00:41:38;;;;;;;4.28;1.95;;;;;;;15.41;100.00;64578.03;5090255;28;20228;-54
2023/10/27 00:44:04;;;;;;;6.95;2.10;;;;;;;15.31;100.00;64567.03;5091106;28;20224;-53
2023/10/27 00:46:29;;;;;;;5.20;2.17;;;;;;;15.16;100.00;64553.63;5091014;28;20200;-54
2023/10/27 00:48:56;;;;;;;5.15;1.83;;;;;;;15.35;100.00;64571.97;5091163;28;20211;-54
2023/10/27 00:51:22;;;;;;;4.57;2.05;;;;;;;15.49;100.00;64589.41;5090966;28;20223;-54
2023/10/27 00:53:48;;;;;;;3.95;2.10;;;;;;;15.56;100.00;64597.66;5091056;28;20279;-53
2023/10/27 00:56:14;;;;;;;4.03;2.47;;;;;;;15.56;100.00;64595.09;5090770;28;20737;-54
2023/10/27 00:58:39;;;;;;;3.90;1.73;;;;;;;15.47;100.00;64590.28;5090824;28;20321;-54
2023/10/27 01:01:07;;;;;;;6.93;2.70;;;;;;;15.54;100.00;64597.44;5090748;28;20192;-54
2023/10/27 01:03:33;;;;;;;5.90;2.58;;;;;;;15.38;100.00;64574.72;5090753;28;20211;-54
2023/10/27 01:05:58;;;;;;;6.57;2.67;;;;;;;15.19;100.00;64556.91;5090575;28;20199;-55
2023/10/27 01:08:24;;;;;;;6.63;2.70;;;;;;;15.25;100.00;64562.97;5072853;28;20208;-54
2023/10/27 01:10:49;;;;;;;10.27;3.17;;;;;;;15.23;100.00;64558.78;5090754;28;20597;-55
2023/10/27 01:13:15;;;;;;;4.63;2.10;;;;;;;15.45;100.00;64587.53;5090964;28;20303;-54
2023/10/27 01:15:40;;;;;;;7.03;2.13;;;;;;;15.39;100.00;64578.91;5090628;28;20553;-53
2023/10/27 01:18:05;;;;;;;10.23;2.53;;;;;;;15.55;100.00;64596.00;5090757;28;20329;-54
2023/10/27 01:20:31;;;;;;;6.68;2.60;;;;;;;15.58;100.00;64599.28;5090604;28;20716;-55
2023/10/27 01:22:56;;;;;;;5.50;2.55;;;;;;;15.61;100.00;64602.59;5090566;28;20257;-54
2023/10/27 01:25:29;;;;;;;4.72;2.45;;;;;;;15.61;100.00;64602.59;5090572;28;20709;-55
2023/10/27 01:27:56;;;;;;;5.80;2.17;;;;;;;15.62;100.00;64606.22;5097876;22;20231;-53
2023/10/27 01:30:22;;;;;;;7.93;3.03;;;;;;;15.63;100.00;64604.81;5090613;28;20206;-54
2023/10/27 01:32:47;;;;;;;9.77;2.72;;;;;;;15.62;100.00;64603.69;5076384;28;20603;-54
2023/10/27 01:35:13;;;;;;;7.05;2.90;;;;;;;15.55;100.00;64596.00;5070303;28;20220;-62
2023/10/27 01:37:39;;;;;;;7.28;3.03;;;;;;;15.56;100.00;64594.56;5070591;28;20583;-53
2023/10/27 01:40:05;;;;;;;10.40;3.33;;;;;;;15.49;100.00;64591.94;5052089;28;20232;-54
2023/10/27 01:42:34;;;;;;;7.85;2.90;;;;;;;15.31;100.00;64569.59;5069807;28;20238;-53
2023/10/27 01:45:04;;;;;;;6.53;2.88;;;;;;;15.36;100.00;64577.63;5070360;28;20205;-57
2023/10/27 01:47:30;;;;;;;6.53;3.08;;;;;;;15.36;100.00;64575.06;5070243;28;20201;-55
2023/10/27 01:49:57;;;;;;;15.00;3.33;;;;;;;15.44;100.00;64584.44;5070179;28;20228;-59
2023/10/27 01:52:22;;;;;;;9.23;3.13;;;;;;;15.25;100.00;64560.44;5069965;28;20670;-61
2023/10/27 01:54:47;;;;;;;8.65;3.15;;;;;;;15.29;100.00;64567.38;5073469;28;20215;-56
2023/10/27 01:57:13;;;;;;;7.65;3.00;;;;;;;15.37;100.00;64576.19;5089592;22;20238;-59
2023/10/27 01:59:38;;;;;;;15.10;3.88;;;;;;;15.40;100.00;64582.56;5093690;28;20216;-54
2023/10/27 02:02:04;;;;;;;10.32;3.25;;;;;;;15.44;100.00;64581.34;5085307;28;20205;-54
2023/10/27 02:04:34;;;;;;;7.43;3.17;;;;;;;15.43;100.00;64582.81;5073417;28;20192;-55
2023/10/27 02:06:59;;;;;;;6.50;2.95;;;;;;;15.35;100.00;64573.97;5055396;28;20221;-55
2023/10/27 02:09:25;;;;;;;7.75;2.80;;;;;;;15.52;100.00;64590.72;5073310;28;20195;-54
2023/10/27 02:11:50;;;;;;;13.77;3.47;;;;;;;15.65;100.00;64607.56;5055400;28;20674;-54
2023/10/27 02:14:15;;;;;;;6.72;3.00;;;;;;;15.74;100.00;64616.88;5073196;28;20197;-56
2023/10/27 02:16:41;;;;;;;7.85;3.00;;;;;;;15.59;100.00;64602.94;5073551;28;20266;-54
2023/10/27 02:19:06;;;;;;;6.57;2.95;;;;;;;15.56;100.00;64597.09;5072995;28;20212;-54
2023/10/27 02:21:32;;;;;;;7.13;3.13;;;;;;;15.39;100.00;64578.38;5073395;28;20213;-54
2023/10/27 02:23:57;;;;;;;12.77;3.08;;;;;;;15.69;100.00;64613.94;5073020;28;20732;-54
2023/10/27 02:26:22;;;;;;;9.20;3.30;;;;;;;15.63;100.00;64605.34;5073191;28;20225;-55
2023/10/27 02:28:48;;;;;;;9.65;3.20;;;;;;;15.55;100.00;64596.56;5072839;28;20634;-55
2023/10/27 02:31:13;;;;;;;11.75;3.55;;;;;;;15.56;100.00;64597.09;5072856;28;20209;-54
2023/10/27 02:33:39;;;;;;;4.88;2.90;;;;;;;15.48;100.00;64585.75;5054874;28;20200;-54
2023/10/27 02:36:04;;;;;;;8.88;2.50;;;;;;;15.31;100.00;64572.66;5073002;28;20275;-53
2023/10/27 02:38:30;;;;;;;7.50;3.00;;;;;;;15.56;100.00;64597.09;5072912;28;20602;-54
2023/10/27 02:40:55;;;;;;;9.10;3.38;;;;;;;15.52;100.00;64592.69;5072750;28;20361;-54
2023/10/27 02:43:21;;;;;;;6.78;2.63;;;;;;;15.53;100.00;64593.81;5072714;28;20200;-54
2023/10/27 02:45:46;;;;;;;6.88;2.60;;;;;;;15.52;100.00;64590.72;5072484;28;20603;-54
2023/10/27 02:48:11;;;;;;;9.40;2.97;;;;;;;15.48;100.00;64588.84;5072541;28;20212;-56
2023/10/27 02:50:37;;;;;;;7.68;3.25;;;;;;;15.46;100.00;64586.66;5072420;28;20204;-55
2023/10/27 02:53:02;;;;;;;10.02;4.07;;;;;;;15.54;100.00;64597.97;5072430;28;20565;-54
2023/10/27 02:55:28;;;;;;;5.70;2.88;;;;;;;15.34;100.00;64575.41;5072461;28;20199;-54
2023/10/27 02:57:53;;;;;;;7.75;3.45;;;;;;;15.26;100.00;64566.63;5072508;28;20699;-54
2023/10/27 03:00:19;;;;;;;5.88;3.10;;;;;;;15.34;100.00;64572.88;5072143;28;20691;-53
2023/10/27 03:02:44;;;;;;;6.57;2.90;;;;;;;15.54;100.00;64594.88;5072236;28;20292;-54
2023/10/27 03:05:10;;;;;;;8.60;3.22;;;;;;;15.61;100.00;64602.59;5072046;28;20189;-54
2023/10/27 03:07:35;;;;;;;8.60;3.20;;;;;;;15.58;100.00;64602.38;5072395;28;20220;-54
2023/10/27 03:10:02;;;;;;;6.00;2.78;;;;;;;15.44;100.00;64583.88;5072273;28;20279;-52
2023/10/27 03:12:34;;;;;;;7.95;3.15;;;;;;;15.34;100.00;64573.44;5054561;28;20298;-52
2023/10/27 03:14:59;;;;;;;7.65;3.92;;;;;;;15.51;100.00;64589.06;5072184;28;20598;-52
2023/10/27 03:17:25;;;;;;;6.30;3.35;;;;;;;15.48;100.00;64588.84;5072024;28;20209;-54
2023/10/27 03:19:51;;;;;;;8.43;3.20;;;;;;;15.59;100.00;64597.84;5071951;28;20227;-53
2023/10/27 03:22:16;;;;;;;12.68;3.47;;;;;;;15.58;100.00;64599.28;5072348;28;20205;-59
2023/10/27 03:24:42;;;;;;;7.28;3.13;;;;;;;15.53;100.00;64594.34;5072338;28;20223;-52
2023/10/27 03:27:07;;;;;;;7.30;2.72;;;;;;;15.64;100.00;64606.44;5072376;28;20215;-54
2023/10/27 03:29:33;;;;;;;4.68;3.00;;;;;;;15.76;100.00;64621.63;5071988;28;20284;-55
2023/10/27 03:31:58;;;;;;;8.60;3.33;;;;;;;15.60;100.00;64601.50;5072172;28;20217;-55
2023/10/27 03:34:24;;;;;;;8.05;2.72;;;;;;;15.23;100.00;64561.31;5092705;22;20227;-55
2023/10/27 03:36:49;;;;;;;5.93;2.60;;;;;;;15.40;100.00;64582.56;5086006;28;20212;-53
2023/10/27 03:39:14;;;;;;;8.43;2.67;;;;;;;15.44;100.00;64583.88;5071696;28;20213;-54
2023/10/27 03:41:40;;;;;;;7.90;2.97;;;;;;;15.53;100.00;64594.34;5071931;28;20219;-53
2023/10/27 03:44:06;;;;;;;5.57;2.65;;;;;;;15.44;100.00;64583.88;5072247;28;20204;-54
2023/10/27 03:46:32;;;;;;;8.63;3.30;;;;;;;15.47;100.00;64584.66;5071673;28;20212;-54
2023/10/27 03:48:58;;;;;;;8.27;2.97;;;;;;;15.33;100.00;64571.78;5053900;28;20231;-54
2023/10/27 03:51:25;;;;;;;5.53;2.80;;;;;;;15.37;100.00;64576.19;5072108;28;20651;-54
2023/10/27 03:53:53;;;;;;;7.47;2.83;;;;;;;15.21;100.00;64561.13;5071821;28;20208;-53
2023/10/27 03:56:18;;;;;;;6.45;2.95;;;;;;;15.06;100.00;64545.19;5071467;28;20215;-53
2023/10/27 03:58:44;;;;;;;8.85;2.85;;;;;;;15.04;100.00;64540.44;5071684;28;20280;-54
2023/10/27 04:01:09;;;;;;;9.30;2.72;;;;;;;15.14;100.00;64554.53;5071633;28;20219;-53
2023/10/27 04:03:34;;;;;;;6.90;2.92;;;;;;;15.20;100.00;64557.47;5071293;28;20204;-54
2023/10/27 04:06:00;;;;;;;9.73;3.20;;;;;;;15.11;100.00;64545.59;5071602;28;20670;-54
2023/10/27 04:08:26;;;;;;;5.90;2.78;;;;;;;15.06;100.00;64542.63;5071578;28;20208;-54
2023/10/27 04:10:52;;;;;;;5.35;2.45;;;;;;;15.25;100.00;64562.97;5053373;28;20688;-53
2023/10/27 04:13:18;;;;;;;9.25;3.03;;;;;;;15.11;100.00;64548.13;5071550;28;20212;-53
2023/10/27 04:15:47;;;;;;;7.47;3.63;;;;;;;14.75;100.00;64511.09;5070862;28;20193;-53
2023/10/27 04:18:12;;;;;;;5.07;3.00;;;;;;;14.76;100.00;64509.66;5070564;28;20701;-52
2023/10/27 04:20:38;;;;;;;10.93;3.33;;;;;;;15.05;100.00;64544.06;5071687;28;20205;-53
2023/10/27 04:23:04;;;;;;;8.13;2.55;;;;;;;15.27;100.00;64565.72;5070966;28;20266;-54
2023/10/27 04:25:30;;;;;;;7.82;3.25;;;;;;;15.20;100.00;64560.56;5071140;28;20200;-53
2023/10/27 04:27:55;;;;;;;11.65;3.78;;;;;;;15.23;100.00;64560.78;5070577;28;20690;-53
2023/10/27 04:30:21;;;;;;;8.52;3.05;;;;;;;15.20;100.00;64554.94;5070727;28;20524;-53
2023/10/27 04:32:47;;;;;;;6.72;3.22;;;;;;;15.16;100.00;64553.63;5070733;28;20212;-53
2023/10/27 04:35:13;;;;;;;7.70;3.42;;;;;;;15.12;100.00;64549.78;5070837;28;20215;-53
2023/10/27 04:37:39;;;;;;;6.95;2.65;;;;;;;15.33;100.00;64574.84;5070589;28;20208;-53
2023/10/27 04:40:06;;;;;;;6.93;3.03;;;;;;;15.51;100.00;64592.16;5070523;28;20219;-54
2023/10/27 04:42:32;;;;;;;5.32;2.60;;;;;;;15.26;100.00;64566.63;5052523;28;20212;-54
2023/10/27 04:44:57;;;;;;;5.80;2.75;;;;;;;15.12;100.00;64549.25;5070673;28;20220;-54
2023/10/27 04:47:22;;;;;;;6.00;3.03;;;;;;;15.08;100.00;64545.41;5070272;28;20656;-53
2023/10/27 04:49:49;;;;;;;7.57;3.17;;;;;;;14.84;100.00;64519.00;5070455;28;20181;-54
2023/10/27 04:52:14;;;;;;;7.05;2.90;;;;;;;15.23;100.00;64561.31;5070685;28;20235;-53
2023/10/27 04:54:40;;;;;;;7.15;2.88;;;;;;;15.62;100.00;64603.69;5071210;28;20556;-54
2023/10/27 04:57:05;;;;;;;6.75;3.08;;;;;;;15.71;100.00;64613.59;5070539;28;20592;-54
2023/10/27 04:59:32;;;;;;;9.35;3.45;;;;;;;15.77;100.00;64620.75;5070642;28;20216;-59
2023/10/27 05:01:57;;;;;;;6.55;3.33;;;;;;;15.63;100.00;64604.81;5070576;28;20208;-54
2023/10/27 05:04:23;;;;;;;6.88;3.50;;;;;;;15.88;100.00;64634.84;5052433;28;20685;-54
2023/10/27 05:06:49;;;;;;;9.38;2.95;;;;;;;15.69;100.00;64611.41;5070282;28;20215;-53
2023/10/27 05:09:18;;;;;;;8.80;3.08;;;;;;;15.78;100.00;64618.75;5070795;28;20232;-53
2023/10/27 05:11:45;;;;;;;8.73;2.90;;;;;;;15.68;100.00;64613.38;5070103;28;20212;-53
2023/10/27 05:14:12;;;;;;;9.13;2.85;;;;;;;15.49;100.00;64591.94;5069148;28;20282;-53
2023/10/27 05:16:38;;;;;;;6.03;2.88;;;;;;;15.47;100.00;64587.19;5070075;28;20217;-53
2023/10/27 05:19:04;;;;;;;6.35;3.00;;;;;;;15.71;100.00;64616.69;5052358;28;20312;-54
2023/10/27 05:21:30;;;;;;;7.93;3.28;;;;;;;15.74;100.00;64620.00;5070275;28;20283;-53
2023/10/27 05:23:57;;;;;;;6.47;2.72;;;;;;;15.77;100.00;64620.19;5052373;28;20701;-53
2023/10/27 05:26:24;;;;;;;5.25;2.78;;;;;;;15.72;100.00;64617.22;5069984;28;20208;-53
2023/10/27 05:28:50;;;;;;;8.73;2.88;;;;;;;15.83;100.00;64626.81;5072304;28;20254;-54
2023/10/27 05:31:16;;;;;;;5.88;2.92;;;;;;;15.76;100.00;64616.53;5073795;28;20200;-57
2023/10/27 05:33:42;;;;;;;9.45;2.58;;;;;;;15.68;100.00;64610.84;5055434;28;20263;-54
2023/10/27 05:36:08;;;;;;;7.55;3.05;;;;;;;15.84;100.00;64628.44;5073641;28;20294;-52
2023/10/27 05:38:33;;;;;;;9.27;3.15;;;;;;;15.85;100.00;64631.53;5073441;28;20246;-54
2023/10/27 05:40:59;;;;;;;13.70;3.63;;;;;;;15.86;100.00;64630.09;5073391;28;20223;-54
2023/10/27 05:43:25;;;;;;;7.90;3.05;;;;;;;15.76;100.00;64619.09;5073668;28;20213;-53
2023/10/27 05:45:51;;;;;;;6.20;2.58;;;;;;;15.78;100.00;64619.31;5072335;28;20290;-55
2023/10/27 05:48:18;;;;;;;4.03;2.33;;;;;;;15.57;100.00;64598.75;5073483;28;20240;-55
2023/10/27 05:50:43;;;;;;;9.32;3.25;;;;;;;15.60;100.00;64601.50;5073518;28;20262;-55
2023/10/27 05:53:09;;;;;;;5.13;1.95;;;;;;;15.86;100.00;64633.19;5073426;28;20217;-56
2023/10/27 05:55:36;;;;;;;6.78;3.10;;;;;;;15.85;100.00;64629.00;5073527;28;20274;-55
2023/10/27 05:58:01;;;;;;;7.53;2.90;;;;;;;15.68;100.00;64608.31;5073562;28;20299;-54
2023/10/27 06:00:29;;;;;;;9.23;2.70;;;;;;;15.64;100.00;64603.34;5073371;28;20295;-58
2023/10/27 06:02:55;;;;;;;5.82;2.78;;;;;;;15.56;100.00;64597.09;5073391;28;20215;-55
2023/10/27 06:05:21;;;;;;;6.40;3.60;;;;;;;15.60;100.00;64599.50;5073080;28;20209;-54
2023/10/27 06:07:47;;;;;;;7.68;4.13;;;;;;;15.60;100.00;64602.03;5073034;28;20270;-55
2023/10/27 06:10:13;;;;;;;8.75;3.25;;;;;;;15.63;100.00;64604.81;5073187;28;20205;-55
2023/10/27 06:12:38;;;;;;;8.73;3.22;;;;;;;15.72;100.00;64612.69;5073287;28;20212;-55
2023/10/27 06:15:04;;;;;;;8.57;3.47;;;;;;;15.81;100.00;64622.63;5073280;28;20197;-55
2023/10/27 06:17:30;;;;;;;8.13;3.00;;;;;;;15.94;100.00;64636.34;5073007;28;20595;-54
2023/10/27 06:19:56;;;;;;;4.63;3.15;;;;;;;16.00;100.00;64645.50;5055340;28;20201;-54
2023/10/27 06:22:21;;;;;;;7.90;3.55;;;;;;;16.01;100.00;64649.16;5073033;28;20213;-61
2023/10/27 06:24:47;;;;;;;6.88;3.22;;;;;;;15.99;100.00;64646.94;5072906;28;20679;-54
2023/10/27 06:27:13;;;;;;;4.38;2.83;;;;;;;16.08;100.00;64651.22;5072946;28;20219;-53
2023/10/27 06:29:39;;;;;;;9.18;3.97;;;;;;;16.06;100.00;64652.09;5073237;28;20604;-54
2023/10/27 06:32:04;;;;;;;8.25;4.22;;;;;;;16.09;100.00;64654.84;5072705;28;20208;-55
2023/10/27 06:34:30;;;;;;;15.60;5.50;;;;;;;16.26;100.00;64674.13;5072885;28;20200;-54
2023/10/27 06:36:56;;;;;;;10.93;3.85;;;;;;;16.40;100.00;64692.06;5072842;28;20213;-57
2023/10/27 06:39:22;;;;;;;10.05;3.35;;;;;;;16.54;100.00;64704.94;5071833;28;20216;-56
2023/10/27 06:41:49;;;;;;;9.93;3.65;;;;;;;16.50;100.00;64700.03;5072741;28;20217;-53
2023/10/27 06:44:15;;;;;;;8.05;2.85;;;;;;;16.50;100.00;64697.47;5073307;28;20205;-54
2023/10/27 06:46:41;;;;;;;9.35;4.28;;;;;;;16.41;100.00;64690.63;5072485;28;20227;-53
2023/10/27 06:49:06;;;;;;;12.27;5.55;;;;;;;16.33;100.00;64679.28;5072479;28;20196;-53
2023/10/27 06:51:32;;;;;;;12.38;4.22;;;;;;;16.36;100.00;64682.56;5072695;28;20208;-53
2023/10/27 06:53:58;;;;;;;9.13;2.88;;;;;;;16.76;100.00;64726.09;5072845;28;20203;-52
2023/10/27 06:56:24;;;;;;;3.25;2.60;;;;;;;16.78;100.00;64731.41;5072709;28;20295;-55
2023/10/27 06:58:49;;;;;;;11.07;3.92;;;;;;;16.59;100.00;64707.38;5072539;28;20283;-53
2023/10/27 07:01:15;;;;;;;11.00;4.25;;;;;;;16.46;100.00;64696.13;5054632;28;20285;-55
2023/10/27 07:03:40;;;;;;;9.27;3.53;;;;;;;16.68;100.00;64720.38;5054571;28;20671;-53
2023/10/27 07:06:07;;;;;;;12.85;3.35;;;;;;;16.96;100.00;64750.13;5072496;28;20215;-53
2023/10/27 07:08:33;;;;;;;8.40;2.95;;;;;;;16.91;100.00;64745.16;5072388;28;20248;-53
2023/10/27 07:11:00;;;;;;;9.57;3.65;;;;;;;16.98;100.00;64750.31;5072364;28;20232;-53
2023/10/27 07:13:27;;;;;;;8.35;3.50;;;;;;;16.97;100.00;64751.22;5072256;28;20250;-53
2023/10/27 07:15:53;;;;;;;8.30;3.15;;;;;;;17.05;100.00;64760.56;5072209;28;20197;-53
2023/10/27 07:18:19;;;;;;;10.05;3.75;;;;;;;17.34;100.00;64791.97;5072107;28;20662;-53
2023/10/27 07:20:44;;;;;;;8.88;3.20;;;;;;;17.32;100.00;64792.31;5072190;28;20224;-52
2023/10/27 07:23:10;;;;;;;8.95;3.83;;;;;;;17.09;100.00;64764.97;5054212;28;20212;-57
2023/10/27 07:25:36;;;;;;;10.77;4.40;;;;;;;17.04;100.00;64762.03;5072492;28;20201;-54
2023/10/27 07:28:02;;;;;;;6.60;3.88;;;;;;;17.07;100.00;64760.22;5071885;28;20600;-53
2023/10/27 07:30:28;;;;;;;12.15;4.68;;;;;;;17.35;100.00;64790.53;5054321;28;20216;-52
2023/10/27 07:32:54;;;;;;;9.02;4.20;;;;;;;17.30;100.00;64787.56;5072122;28;20220;-53
2023/10/27 07:35:19;;;;;;;13.02;4.75;;;;;;;17.00;100.00;64749.97;5072269;28;20193;-52
2023/10/27 07:37:45;;;;;;;6.35;3.53;;;;;;;17.37;100.00;64795.28;5054021;28;20333;-53
2023/10/27 07:40:10;;;;;;;10.05;4.18;;;;;;;17.15;100.00;64769.03;5071804;28;20297;-52
2023/10/27 07:42:36;;;;;;;9.32;3.80;;;;;;;17.14;100.00;64772.50;5071825;28;20219;-57
2023/10/27 07:45:01;;;;;;;7.63;4.22;;;;;;;17.45;100.00;64804.66;5054097;28;20690;-52
2023/10/27 07:47:27;;;;;;;10.70;3.85;;;;;;;17.32;100.00;64790.31;5071671;28;20243;-53
2023/10/27 07:49:53;;;;;;;7.68;4.22;;;;;;;17.33;100.00;64790.88;5071721;28;20206;-53
2023/10/27 07:52:19;;;;;;;10.50;3.70;;;;;;;17.63;100.00;64823.97;5071356;28;20568;-53
2023/10/27 07:54:44;;;;;;;12.65;4.80;;;;;;;17.71;100.00;64832.78;5071646;28;20207;-52
2023/10/27 07:57:10;;;;;;;14.93;5.38;;;;;;;17.73;100.00;64831.88;5071772;28;20279;-53
2023/10/27 07:59:35;;;;;;;10.40;4.30;;;;;;;18.05;100.00;64867.72;5071402;28;20223;-53
2023/10/27 08:02:01;;;;;;;16.48;4.43;;;;;;;17.92;100.00;64855.91;5071471;28;20204;-53
2023/10/27 08:04:26;;;;;;;10.27;4.20;;;;;;;17.78;100.00;64837.94;5071781;28;20599;-53
2023/10/27 08:06:52;;;;;;;9.82;3.55;;;;;;;18.10;100.00;64877.78;5071484;28;20219;-58
2023/10/27 08:09:21;;;;;;;17.67;4.00;;;;;;;17.91;100.00;64852.28;5071355;28;20209;-53
2023/10/27 08:11:50;;;;;;;8.85;3.30;;;;;;;18.22;100.00;64885.91;5053466;28;20295;-54
2023/10/27 08:14:16;;;;;;;8.98;3.58;;;;;;;18.39;100.00;64909.75;5071927;28;20204;-53
2023/10/27 08:16:42;;;;;;;7.13;3.65;;;;;;;18.61;100.00;64928.94;5071148;28;20733;-54
2023/10/27 08:19:08;;;;;;;10.38;3.47;;;;;;;18.69;100.00;64935.22;5071494;28;20276;-53
2023/10/27 08:21:34;;;;;;;11.90;4.07;;;;;;;18.74;100.00;64942.72;5071428;28;20291;-52
2023/10/27 08:23:59;;;;;;;8.88;3.80;;;;;;;19.06;99.50;64981.16;5071484;28;20738;-53
2023/10/27 08:26:24;;;;;;;9.48;3.88;;;;;;;19.54;95.17;65030.50;5071282;28;20212;-53
2023/10/27 08:28:50;;;;;;;7.75;3.88;;;;;;;19.57;96.52;65033.81;5053253;28;20204;-56
2023/10/27 08:31:16;;;;;;;8.60;3.45;;;;;;;19.49;96.73;65022.97;5071047;28;20204;-53
2023/10/27 08:33:42;;;;;;;8.85;3.72;;;;;;;19.42;97.34;65017.78;5071047;28;20200;-53
2023/10/27 08:36:08;;;;;;;9.10;3.35;;;;;;;19.59;94.34;65033.47;5071041;28;20208;-53
2023/10/27 08:38:33;;;;;;;11.20;3.80;;;;;;;19.37;97.44;65009.19;5071203;28;20288;-53
2023/10/27 08:40:59;;;;;;;8.88;4.05;;;;;;;19.13;96.35;64985.75;5070882;28;20212;-53
2023/10/27 08:43:26;;;;;;;6.40;3.45;;;;;;;19.39;96.12;65013.94;5070674;28;20718;-53
2023/10/27 08:45:52;;;;;;;9.15;4.82;;;;;;;19.50;96.83;65031.19;5070750;28;20205;-55
2023/10/27 08:48:18;;;;;;;10.10;3.42;;;;;;;19.50;96.03;65026.06;5070610;28;20220;-54
2023/10/27 08:50:44;;;;;;;6.07;2.92;;;;;;;19.18;94.15;64991.28;5070771;28;20175;-53
2023/10/27 08:53:12;;;;;;;14.20;2.95;;;;;;;19.03;93.64;64977.28;5070794;28;20699;-54
2023/10/27 08:55:38;;;;;;;8.02;3.53;;;;;;;19.03;95.32;64974.72;5052775;28;20291;-52
2023/10/27 08:58:04;;;;;;;10.13;2.85;;;;;;;19.14;93.14;64987.44;5052718;28;20216;-52
2023/10/27 09:00:30;;;;;;;12.10;3.00;;;;;;;19.46;90.54;65019.66;5070675;28;20235;-58
2023/10/27 09:02:55;;;;;;;5.72;2.85;;;;;;;19.58;90.27;65034.91;5070172;28;20666;-57
2023/10/27 09:05:23;;;;;;;7.70;3.03;;;;;;;19.65;88.98;65040.66;5070609;28;20205;-58
2023/10/27 09:07:49;;;;;;;3.53;2.10;;;;;;;19.51;87.77;65027.19;5070695;28;20303;-54
2023/10/27 09:10:18;;;;;;;5.43;2.95;;;;;;;19.54;88.26;65030.50;5070651;28;20641;-54
2023/10/27 09:12:44;;;;;;;3.15;2.28;;;;;;;19.91;84.55;65071.91;5070491;28;20216;-54
2023/10/27 09:15:13;;;;;;;5.68;2.28;;;;;;;20.07;84.15;65089.03;5070543;28;20208;-54
2023/10/27 09:17:58;;;;;;;5.78;2.30;;;;;;;20.07;84.30;65089.03;5070488;28;20301;-54
2023/10/27 09:20:25;;;;;;;6.45;2.38;;;;;;;20.07;83.81;65089.59;5070513;28;20212;-54
2023/10/27 09:23:09;;;;;;;7.88;2.72;;;;;;;19.95;83.83;65078.88;5070584;28;20208;-54
2023/10/27 09:25:35;;;;;;;6.97;2.83;;;;;;;20.12;84.09;65096.56;5052221;28;20208;-53
2023/10/27 09:28:08;;;;;;;12.95;2.55;;;;;;;20.23;84.56;65106.16;5069931;28;20771;-54
2023/10/27 09:30:38;;;;;;;8.45;2.15;;;;;;;20.50;78.65;65136.53;5052853;28;20204;-53
2023/10/27 09:33:18;;;;;;;9.43;2.40;;;;;;;20.63;78.49;65150.38;5069910;28;20244;-53
2023/10/27 09:35:46;;;;;;;4.85;2.63;;;;;;;20.75;94.41;65166.19;5070382;28;20639;-55
2023/10/27 09:38:13;;;;;;;10.45;3.15;;;;;;;21.15;100.00;65205.31;5070164;28;20299;-53
2023/10/27 09:40:40;;;;;;;6.50;3.00;;;;;;;21.27;100.00;65221.13;5070121;28;20200;-52
2023/10/27 09:43:20;;;;;;;6.15;2.40;;;;;;;21.55;80.45;65252.09;5070022;28;20274;-53
2023/10/27 09:45:55;;;;;;;8.23;2.30;;;;;;;21.61;71.21;65258.75;5070184;28;20219;-52
2023/10/27 09:48:29;;;;;;;5.25;2.25;;;;;;;21.55;71.08;65249.00;5069831;28;20301;-52
2023/10/27 09:51:09;;;;;;;4.53;2.47;;;;;;;21.48;70.80;65241.25;5035534;28;20277;-52
2023/10/27 09:53:36;;;;;;;4.63;2.20;;;;;;;21.10;73.30;65201.78;5052098;28;20208;-54
2023/10/27 09:56:02;;;;;;;4.32;1.75;;;;;;;21.23;76.86;65218.75;5052059;28;20185;-55
2023/10/27 09:58:30;;;;;;;5.78;2.00;;;;;;;21.16;72.41;65208.97;5069885;28;20228;-53
2023/10/27 10:00:57;;;;;;;8.57;2.45;;;;;;;21.25;73.56;65218.94;5069809;28;20209;-54
2023/10/27 10:03:27;;;;;;;4.97;1.95;;;;;;;21.50;71.18;65244.03;5052104;28;20268;-57
2023/10/27 10:06:18;;;;;;;6.22;2.03;;;;;;;21.51;71.24;65247.16;5070022;28;20204;-55
2023/10/27 10:09:14;;;;;;;5.30;2.08;;;;;;;21.49;69.17;65245.47;5070215;28;20237;-54
2023/10/27 10:11:53;;;;;;;12.57;2.75;;;;;;;21.22;72.35;65215.06;5051755;28;20213;-55
2023/10/27 10:14:36;;;;;;;8.65;2.00;;;;;;;21.15;71.85;65205.31;5070003;28;20283;-55
2023/10/27 10:17:03;;;;;;;5.13;1.52;;;;;;;21.17;70.14;65206.97;5071593;28;20247;-54
2023/10/27 10:19:50;;;;;;;4.18;1.50;;;;;;;21.11;70.54;65202.91;5071731;28;20286;-55
2023/10/27 10:22:40;;;;;;;3.85;1.75;;;;;;;21.10;69.96;65202.34;5072963;28;20201;-54
2023/10/27 10:25:18;;;;;;;6.10;1.40;;;;;;;21.13;68.58;65202.56;5072783;28;20671;-55
2023/10/27 10:28:08;;;;;;;4.80;1.85;;;;;;;21.16;68.72;65205.88;5073011;28;20212;-54
2023/10/27 10:30:39;;;;;;;5.43;1.50;;;;;;;21.14;66.81;65206.22;5073006;28;20422;-55
2023/10/27 10:33:14;;;;;;;6.00;2.25;;;;;;;21.19;66.48;65211.75;5072921;28;20715;-55
2023/10/27 10:35:40;;;;;;;4.75;2.10;;;;;;;21.17;67.43;65210.06;5072963;28;20686;-59
2023/10/27 10:38:24;;;;;;;7.75;1.60;;;;;;;21.38;64.79;65230.75;5072710;28;20209;-62
2023/10/27 10:40:51;;;;;;;3.78;1.25;;;;;;;21.59;63.70;65256.53;5072606;28;20212;-53
2023/10/27 10:43:29;;;;;;;5.07;1.52;;;;;;;21.40;64.84;65234.97;5079279;23;20228;-53
2023/10/27 10:45:59;;;;;;;3.25;1.60;;;;;;;21.40;62.26;65234.97;5075335;28;20280;-52
2023/10/27 10:48:29;;;;;;;4.30;1.63;;;;;;;21.38;61.10;65230.75;5093288;28;20310;-56
2023/10/27 10:50:59;;;;;;;2.83;0.90;;;;;;;21.36;57.79;65231.09;5093206;28;20204;-52
2023/10/27 10:53:25;;;;;;;2.10;1.10;;;;;;;21.62;57.16;65262.44;5092870;28;20211;-54
2023/10/27 10:55:56;;;;;;;2.22;0.98;;;;;;;21.71;57.16;65269.81;5092835;28;20586;-53
2023/10/27 10:58:29;;;;;;;4.25;1.20;;;;;;;21.77;57.04;65273.88;5092918;28;20211;-56
2023/10/27 11:00:56;;;;;;;5.78;1.50;;;;;;;21.74;56.41;65272.56;5092787;28;20247;-54
2023/10/27 11:03:24;;;;;;;3.30;1.13;;;;;;;21.63;57.42;65260.94;5092559;28;20299;-53
2023/10/27 11:05:54;;;;;;;6.90;1.60;;;;;;;21.60;58.69;65257.66;5092899;28;20245;-54
2023/10/27 11:08:26;;;;;;;4.72;1.73;;;;;;;21.65;58.34;65265.19;5092617;28;20261;-55
2023/10/27 11:11:05;;;;;;;2.28;1.48;;;;;;;21.96;58.71;65296.94;5092653;28;20534;-53
2023/10/27 11:13:33;;;;;;;3.25;1.20;;;;;;;21.81;59.80;65279.78;5092732;28;20295;-54
2023/10/27 11:16:00;;;;;;;6.78;1.85;;;;;;;21.60;59.96;65257.66;5092651;28;20261;-58
2023/10/27 11:18:31;;;;;;;6.18;1.40;;;;;;;21.73;59.22;65268.91;5092370;28;20200;-56
2023/10/27 11:20:58;;;;;;;5.50;1.20;;;;;;;21.94;59.31;65291.63;5092341;28;20663;-54
2023/10/27 11:23:30;;;;;;;2.38;1.55;;;;;;;21.80;59.48;65279.22;5092373;28;20207;-55
2023/10/27 11:26:04;;;;;;;4.85;1.60;;;;;;;21.76;60.24;65274.78;5091966;28;20688;-55